Cass Lake, Minnesota
Current Conditions -  °F | °C
As of 2:35 PM on Friday 28 Nov 2014 (Local Time) from KY49 Reporting Station
Overcast Overcast  
Wind Chill:   Ceiling: 3500
Heat Index: 13°   Visibility: 10mi
Dew Point:   Wind: 7mph
Humidity: 77%   Direction: 90°E
Pressure: 29.81"   Gusts: NA
Location:  47.38°N, 94.6°W
Report Text: KY49 282035Z AUTO 09006KT 10SM SCT016 OVC035 M11/M14 A2981 RMK AO2 T11061140
Loading
Personal Weather Stations






























Interactive Weather Map New forecast layout! Learn more

10-Day Weather Forecast

Advertisements
Track Severe Weather on mobile